Home   Weather   USA   LaGrange   Past weeks
Flag for USA

Past Weather in LaGrange, Georgia, USA — Yesterday and Last 2 Weeks

Currently: 53 °F. Clear. (Weather station: Callaway Airport, USA). See more current weather

Past Weather in LaGrange — Graph

°F

LaGrange Temperature Yesterday

Maximum temperature yesterday: 67 °F (at 3:35 pm)
Minimum temperature yesterday: 46 °F (at 10:35 pm)
Average temperature yesterday: 58 °F

High & Low Weather Summary for the Past Weeks

 TemperatureHumidityPressure
High72 °F (Feb 22, 3:35 pm)98% (Feb 15, 7:15 am)30.35 "Hg (Feb 15, 7:15 am)
Low26 °F (Feb 20, 6:55 am)14% (Feb 19, 3:55 pm)29.62 "Hg (Feb 12, 4:15 pm)
Average51 °F65%30.04 "Hg
* Reported Feb 9 8:35 pm — Feb 24 8:55 pm, LaGrange. Weather by CustomWeather, © 2024

Note: Actual official high and low records may vary slightly from our data, if they occured in-between our weather recording intervals... More about our weather records

LaGrange Weather History for the Previous 24 Hours

Scroll right to see more
 ConditionsComfort  
Time TempWeatherWind HumidityBarometerVisibility
8:55 pm
Sat, Feb 24
54 °FClear.5 mph32%30.04 "Hg10 mi
8:35 pm55 °FClear.6 mph31%30.04 "Hg10 mi
8:15 pm56 °FClear.6 mph28%30.03 "Hg10 mi
7:55 pm57 °FClear.9 mph27%30.01 "Hg10 mi
6:35 pm60 °FClear.6 mph25%29.98 "Hg10 mi
5:55 pm63 °FSunny.13 mph22%29.95 "Hg10 mi
5:35 pm64 °FSunny.17 mph21%29.94 "Hg10 mi
5:15 pm65 °FSunny.17 mph20%29.94 "Hg10 mi
4:55 pm65 °FSunny.20 mph19%29.92 "Hg10 mi
4:35 pm66 °FSunny.18 mph19%29.92 "Hg10 mi
3:55 pm66 °FSunny.22 mph19%29.91 "Hg10 mi
3:35 pm66 °FSunny.23 mph20%29.91 "Hg10 mi
3:15 pm66 °FSunny.20 mph20%29.90 "Hg10 mi
2:55 pm67 °FSunny.22 mph21%29.90 "Hg10 mi
2:35 pm67 °FSunny.24 mph21%29.90 "Hg10 mi
1:55 pm66 °FSunny.16 mph22%29.90 "Hg10 mi
1:35 pm66 °FSunny.22 mph22%29.91 "Hg10 mi
12:55 pm65 °FSunny.26 mph24%29.91 "Hg10 mi
12:35 pm65 °FScattered clouds.28 mph23%29.91 "Hg10 mi
12:15 pm65 °FScattered clouds.15 mph27%29.91 "Hg10 mi
11:55 am64 °FSunny.16 mph30%29.91 "Hg10 mi
11:35 am64 °FSunny.12 mph31%29.92 "Hg10 mi
10:55 am61 °FSunny.10 mph35%29.93 "Hg10 mi
10:35 am59 °FSunny.14 mph36%29.92 "Hg10 mi
10:15 am59 °FScattered clouds.14 mph37%29.93 "Hg10 mi
9:55 am57 °FScattered clouds.14 mph40%29.93 "Hg10 mi
9:35 am56 °FSunny.9 mph44%29.93 "Hg10 mi
8:55 am51 °FSunny.9 mph58%29.92 "Hg10 mi
8:35 am48 °FSunny.9 mph65%29.92 "Hg10 mi
7:55 am35 °FSunny.No wind94%29.92 "Hg10 mi
7:35 am34 °FSunny.No wind95%29.91 "Hg10 mi
7:15 am35 °FSunny.No wind94%29.91 "Hg10 mi
6:55 am35 °FClear.No wind95%29.90 "Hg10 mi
6:35 am35 °FClear.No wind95%29.90 "Hg10 mi
6:15 am35 °FClear.No wind95%29.90 "Hg10 mi
5:55 am36 °FClear.No wind94%29.90 "Hg10 mi
5:35 am36 °FClear.No wind90%29.89 "Hg10 mi
4:55 am37 °FClear.No wind94%29.88 "Hg10 mi
4:35 am36 °FClear.No wind93%29.88 "Hg10 mi
4:15 am37 °FClear.No wind92%29.88 "Hg10 mi
3:55 am38 °FClear.No wind90%29.89 "Hg10 mi
3:35 am39 °FClear.No wind85%29.89 "Hg10 mi
2:55 am41 °FClear.No wind79%29.90 "Hg10 mi
2:35 am43 °FClear.No wind70%29.90 "Hg10 mi
2:15 am44 °FClear.No wind68%29.90 "Hg10 mi
1:55 am45 °FClear.5 mph66%29.90 "Hg10 mi
1:35 am43 °FClear.7 mph71%29.90 "Hg10 mi
1:15 am44 °FClear.5 mph67%29.90 "Hg10 mi
12:55 am47 °FClear.7 mph62%29.89 "Hg10 mi
12:35 am48 °FClear.5 mph61%29.89 "Hg10 mi
12:15 am46 °FClear.No wind70%29.88 "Hg10 mi
11:55 pm
Fri, Feb 23
49 °FClear.No wind63%29.87 "Hg10 mi
11:35 pm49 °FClear.3 mph62%29.87 "Hg10 mi
11:15 pm47 °FClear.8 mph67%29.86 "Hg10 mi
10:55 pm47 °FClear.7 mph70%29.85 "Hg10 mi
10:35 pm46 °FClear.5 mph73%29.84 "Hg10 mi
10:15 pm46 °FClear.No wind74%29.83 "Hg10 mi
Weather by CustomWeather, © 2024

See weather overview